sensor_id;sensor_type;location;lat;lon;timestamp;temperature;humidity
73535;DHT22;61792;41.110;16.708;2022-07-06T05:54:14;32.49;46.06
73535;DHT22;61792;41.110;16.708;2022-07-06T05:57:22;32.54;46.30
73535;DHT22;61792;41.110;16.708;2022-07-06T06:00:27;32.40;47.04
73535;DHT22;61792;41.110;16.708;2022-07-06T06:03:35;32.37;47.16
73535;DHT22;61792;41.110;16.708;2022-07-06T06:06:40;32.43;47.19
73535;DHT22;61792;41.110;16.708;2022-07-06T06:09:44;32.61;46.47
73535;DHT22;61792;41.110;16.708;2022-07-06T06:12:49;32.54;47.46
73535;DHT22;61792;41.110;16.708;2022-07-06T06:15:53;32.95;46.29
73535;DHT22;61792;41.110;16.708;2022-07-06T06:18:58;33.19;45.15
73535;DHT22;61792;41.110;16.708;2022-07-06T06:22:02;33.35;45.63
73535;DHT22;61792;41.110;16.708;2022-07-06T06:25:07;33.64;44.41
73535;DHT22;61792;41.110;16.708;2022-07-06T06:28:11;33.96;43.81
73535;DHT22;61792;41.110;16.708;2022-07-06T06:31:15;34.22;42.91
73535;DHT22;61792;41.110;16.708;2022-07-06T06:34:19;34.24;43.28
73535;DHT22;61792;41.110;16.708;2022-07-06T06:37:23;34.56;42.68
73535;DHT22;61792;41.110;16.708;2022-07-06T06:40:27;34.82;41.79
73535;DHT22;61792;41.110;16.708;2022-07-06T06:43:31;34.67;42.40
73535;DHT22;61792;41.110;16.708;2022-07-06T06:46:50;34.96;42.21
73535;DHT22;61792;41.110;16.708;2022-07-06T06:49:55;35.11;41.88
73535;DHT22;61792;41.110;16.708;2022-07-06T06:52:59;34.80;41.84
73535;DHT22;61792;41.110;16.708;2022-07-06T06:56:02;34.70;40.96
73535;DHT22;61792;41.110;16.708;2022-07-06T06:59:06;34.72;41.23
73535;DHT22;61792;41.110;16.708;2022-07-06T07:02:10;35.04;40.36
73535;DHT22;61792;41.110;16.708;2022-07-06T07:05:14;35.13;40.22
73535;DHT22;61792;41.110;16.708;2022-07-06T07:08:18;35.17;40.51
73535;DHT22;61792;41.110;16.708;2022-07-06T07:11:22;35.15;41.10
73535;DHT22;61792;41.110;16.708;2022-07-06T07:14:26;35.10;41.60
73535;DHT22;61792;41.110;16.708;2022-07-06T07:17:31;35.01;41.68
73535;DHT22;61792;41.110;16.708;2022-07-06T07:20:35;34.84;42.04
73535;DHT22;61792;41.110;16.708;2022-07-06T07:23:39;35.10;41.54
73535;DHT22;61792;41.110;16.708;2022-07-06T07:26:44;35.44;41.35
73535;DHT22;61792;41.110;16.708;2022-07-06T07:29:48;35.54;41.33
73535;DHT22;61792;41.110;16.708;2022-07-06T07:32:52;35.59;41.63
73535;DHT22;61792;41.110;16.708;2022-07-06T07:35:56;35.62;42.19
73535;DHT22;61792;41.110;16.708;2022-07-06T07:39:01;35.54;42.71
73535;DHT22;61792;41.110;16.708;2022-07-06T07:42:05;35.52;43.93
73535;DHT22;61792;41.110;16.708;2022-07-06T07:45:10;35.15;45.51
73535;DHT22;61792;41.110;16.708;2022-07-06T07:48:14;35.34;44.55
73535;DHT22;61792;41.110;16.708;2022-07-06T07:51:18;35.39;44.37
73535;DHT22;61792;41.110;16.708;2022-07-06T07:54:23;35.58;43.54
73535;DHT22;61792;41.110;16.708;2022-07-06T07:57:27;35.42;44.11
73535;DHT22;61792;41.110;16.708;2022-07-06T08:00:31;35.49;44.38
73535;DHT22;61792;41.110;16.708;2022-07-06T08:03:35;35.96;43.51
73535;DHT22;61792;41.110;16.708;2022-07-06T08:06:39;35.85;43.94
73535;DHT22;61792;41.110;16.708;2022-07-06T08:09:43;35.68;43.96
73535;DHT22;61792;41.110;16.708;2022-07-06T08:12:47;35.85;44.07
73535;DHT22;61792;41.110;16.708;2022-07-06T08:15:51;35.76;43.44
73535;DHT22;61792;41.110;16.708;2022-07-06T08:18:55;35.76;43.49
73535;DHT22;61792;41.110;16.708;2022-07-06T08:21:59;36.09;42.49
73535;DHT22;61792;41.110;16.708;2022-07-06T08:25:04;36.23;42.27
73535;DHT22;61792;41.110;16.708;2022-07-06T08:28:09;36.02;42.48
73535;DHT22;61792;41.110;16.708;2022-07-06T08:31:13;35.94;42.68
73535;DHT22;61792;41.110;16.708;2022-07-06T08:34:18;36.04;42.67
73535;DHT22;61792;41.110;16.708;2022-07-06T08:37:21;36.06;42.40
73535;DHT22;61792;41.110;16.708;2022-07-06T08:40:31;36.24;42.52
73535;DHT22;61792;41.110;16.708;2022-07-06T08:43:36;36.23;42.95
73535;DHT22;61792;41.110;16.708;2022-07-06T08:46:41;36.00;43.60
73535;DHT22;61792;41.110;16.708;2022-07-06T08:49:45;36.07;44.69
73535;DHT22;61792;41.110;16.708;2022-07-06T08:52:51;35.85;45.25
73535;DHT22;61792;41.110;16.708;2022-07-06T08:55:55;35.69;45.32
73535;DHT22;61792;41.110;16.708;2022-07-06T08:58:59;35.86;44.57
73535;DHT22;61792;41.110;16.708;2022-07-06T09:02:10;36.17;43.94
73535;DHT22;61792;41.110;16.708;2022-07-06T09:09:07;36.09;44.32
73535;DHT22;61792;41.110;16.708;2022-07-06T09:12:13;36.20;45.08
73535;DHT22;61792;41.110;16.708;2022-07-06T09:15:17;35.94;44.65
73535;DHT22;61792;41.110;16.708;2022-07-06T09:18:21;35.69;45.91
73535;DHT22;61792;41.110;16.708;2022-07-06T09:21:28;35.83;46.39
73535;DHT22;61792;41.110;16.708;2022-07-06T09:24:41;35.83;45.86
73535;DHT22;61792;41.110;16.708;2022-07-06T09:27:47;35.82;45.34
73535;DHT22;61792;41.110;16.708;2022-07-06T09:30:54;36.45;44.55
73535;DHT22;61792;41.110;16.708;2022-07-06T09:34:06;36.44;44.66
73535;DHT22;61792;41.110;16.708;2022-07-06T09:37:13;36.30;44.72
73535;DHT22;61792;41.110;16.708;2022-07-06T09:40:17;36.75;42.72
73535;DHT22;61792;41.110;16.708;2022-07-06T09:43:23;37.00;41.84
73535;DHT22;61792;41.110;16.708;2022-07-06T09:46:29;36.79;42.01
73535;DHT22;61792;41.110;16.708;2022-07-06T09:49:41;36.86;41.65
73535;DHT22;61792;41.110;16.708;2022-07-06T09:52:54;36.92;41.50
73535;DHT22;61792;41.110;16.708;2022-07-06T09:55:59;37.27;40.34
73535;DHT22;61792;41.110;16.708;2022-07-06T09:59:11;37.27;40.16
73535;DHT22;61792;41.110;16.708;2022-07-06T10:02:15;37.80;39.16
73535;DHT22;61792;41.110;16.708;2022-07-06T10:05:21;38.29;37.97
73535;DHT22;61792;41.110;16.708;2022-07-06T10:08:31;37.85;37.39
73535;DHT22;61792;41.110;16.708;2022-07-06T10:11:42;37.78;36.57
73535;DHT22;61792;41.110;16.708;2022-07-06T10:14:46;37.76;35.60
73535;DHT22;61792;41.110;16.708;2022-07-06T10:17:51;37.60;36.52
73535;DHT22;61792;41.110;16.708;2022-07-06T10:20:56;37.33;37.59
73535;DHT22;61792;41.110;16.708;2022-07-06T10:24:04;37.23;37.60
73535;DHT22;61792;41.110;16.708;2022-07-06T10:27:09;36.86;38.52
73535;DHT22;61792;41.110;16.708;2022-07-06T10:30:15;37.05;38.09
73535;DHT22;61792;41.110;16.708;2022-07-06T10:33:20;37.27;37.05
73535;DHT22;61792;41.110;16.708;2022-07-06T10:36:25;37.34;36.69
73535;DHT22;61792;41.110;16.708;2022-07-06T10:39:36;36.50;38.26
73535;DHT22;61792;41.110;16.708;2022-07-06T10:43:02;36.31;37.24
73535;DHT22;61792;41.110;16.708;2022-07-06T10:46:10;36.60;35.90
73535;DHT22;61792;41.110;16.708;2022-07-06T10:49:15;36.75;34.45
73535;DHT22;61792;41.110;16.708;2022-07-06T10:52:20;36.86;33.34
73535;DHT22;61792;41.110;16.708;2022-07-06T10:55:32;37.11;33.90
73535;DHT22;61792;41.110;16.708;2022-07-06T10:58:50;37.34;32.56
73535;DHT22;61792;41.110;16.708;2022-07-06T11:02:19;37.54;32.77
73535;DHT22;61792;41.110;16.708;2022-07-06T11:05:40;37.92;32.14
73535;DHT22;61792;41.110;16.708;2022-07-06T11:11:50;37.60;33.56
73535;DHT22;61792;41.110;16.708;2022-07-06T11:14:54;37.60;33.40
73535;DHT22;61792;41.110;16.708;2022-07-06T11:18:12;38.04;33.26
73535;DHT22;61792;41.110;16.708;2022-07-06T11:21:22;38.16;33.25
73535;DHT22;61792;41.110;16.708;2022-07-06T11:24:31;38.12;32.64
73535;DHT22;61792;41.110;16.708;2022-07-06T11:27:35;37.50;33.81
73535;DHT22;61792;41.110;16.708;2022-07-06T11:30:40;37.87;33.16
73535;DHT22;61792;41.110;16.708;2022-07-06T11:33:47;38.05;32.44
73535;DHT22;61792;41.110;16.708;2022-07-06T11:36:56;38.04;32.04
73535;DHT22;61792;41.110;16.708;2022-07-06T11:40:06;38.08;32.59
73535;DHT22;61792;41.110;16.708;2022-07-06T11:43:10;38.00;32.91
73535;DHT22;61792;41.110;16.708;2022-07-06T11:46:25;38.36;33.43
73535;DHT22;61792;41.110;16.708;2022-07-06T11:49:31;37.95;34.04
73535;DHT22;61792;41.110;16.708;2022-07-06T11:52:35;37.70;33.80
73535;DHT22;61792;41.110;16.708;2022-07-06T11:59:36;37.22;33.03
73535;DHT22;61792;41.110;16.708;2022-07-06T12:02:40;37.29;33.86
73535;DHT22;61792;41.110;16.708;2022-07-06T12:05:44;37.12;33.81
73535;DHT22;61792;41.110;16.708;2022-07-06T12:08:50;37.26;33.22
73535;DHT22;61792;41.110;16.708;2022-07-06T12:11:54;37.43;32.97
73535;DHT22;61792;41.110;16.708;2022-07-06T12:14:58;36.78;32.25
73535;DHT22;61792;41.110;16.708;2022-07-06T12:18:02;37.03;32.24
73535;DHT22;61792;41.110;16.708;2022-07-06T12:21:10;36.92;33.39
73535;DHT22;61792;41.110;16.708;2022-07-06T12:24:21;36.71;32.73
73535;DHT22;61792;41.110;16.708;2022-07-06T12:27:25;36.63;31.70
73535;DHT22;61792;41.110;16.708;2022-07-06T12:30:30;36.52;33.41
73535;DHT22;61792;41.110;16.708;2022-07-06T12:33:33;36.38;34.67
73535;DHT22;61792;41.110;16.708;2022-07-06T12:36:49;36.07;34.59
73535;DHT22;61792;41.110;16.708;2022-07-06T12:39:53;36.48;34.05
73535;DHT22;61792;41.110;16.708;2022-07-06T12:42:58;36.82;33.90
73535;DHT22;61792;41.110;16.708;2022-07-06T12:46:23;36.84;31.86
73535;DHT22;61792;41.110;16.708;2022-07-06T12:49:29;37.18;31.08
73535;DHT22;61792;41.110;16.708;2022-07-06T13:01:27;36.52;30.87
73535;DHT22;61792;41.110;16.708;2022-07-06T13:04:32;37.06;30.20
73535;DHT22;61792;41.110;16.708;2022-07-06T13:07:38;37.00;29.87
73535;DHT22;61792;41.110;16.708;2022-07-06T13:10:42;36.79;31.43
73535;DHT22;61792;41.110;16.708;2022-07-06T13:13:48;36.57;31.87
73535;DHT22;61792;41.110;16.708;2022-07-06T13:16:52;36.72;32.30
73535;DHT22;61792;41.110;16.708;2022-07-06T13:19:57;36.75;31.78
73535;DHT22;61792;41.110;16.708;2022-07-06T13:23:02;36.84;31.66
73535;DHT22;61792;41.110;16.708;2022-07-06T13:26:05;36.86;31.57
73535;DHT22;61792;41.110;16.708;2022-07-06T13:29:10;36.63;32.56
73535;DHT22;61792;41.110;16.708;2022-07-06T13:32:15;35.96;33.18
73535;DHT22;61792;41.110;16.708;2022-07-06T13:35:18;35.69;34.63
73535;DHT22;61792;41.110;16.708;2022-07-06T13:38:23;35.54;34.45
73535;DHT22;61792;41.110;16.708;2022-07-06T13:41:27;35.34;33.90
73535;DHT22;61792;41.110;16.708;2022-07-06T13:44:31;35.68;32.62
73535;DHT22;61792;41.110;16.708;2022-07-06T13:47:35;36.19;32.43
73535;DHT22;61792;41.110;16.708;2022-07-06T13:50:40;36.13;33.68
73535;DHT22;61792;41.110;16.708;2022-07-06T13:53:44;36.30;31.96
73535;DHT22;61792;41.110;16.708;2022-07-06T13:56:48;36.68;30.69
73535;DHT22;61792;41.110;16.708;2022-07-06T13:59:52;36.48;31.64
73535;DHT22;61792;41.110;16.708;2022-07-06T14:02:56;36.34;32.33
73535;DHT22;61792;41.110;16.708;2022-07-06T14:06:01;36.15;33.24
73535;DHT22;61792;41.110;16.708;2022-07-06T14:09:08;35.90;33.82
73535;DHT22;61792;41.110;16.708;2022-07-06T14:12:12;35.13;35.23
73535;DHT22;61792;41.110;16.708;2022-07-06T14:15:16;35.39;35.48
73535;DHT22;61792;41.110;16.708;2022-07-06T14:18:20;35.81;34.71
73535;DHT22;61792;41.110;16.708;2022-07-06T14:21:24;35.88;34.61
73535;DHT22;61792;41.110;16.708;2022-07-06T14:24:29;35.61;35.13
73535;DHT22;61792;41.110;16.708;2022-07-06T14:27:34;35.62;35.30
73535;DHT22;61792;41.110;16.708;2022-07-06T14:55:58;34.46;37.60
73535;DHT22;61792;41.110;16.708;2022-07-06T14:59:03;34.48;37.94
73535;DHT22;61792;41.110;16.708;2022-07-06T15:02:07;34.39;38.52
73535;DHT22;61792;41.110;16.708;2022-07-06T15:05:12;34.53;37.93
73535;DHT22;61792;41.110;16.708;2022-07-06T15:08:16;34.70;37.72
73535;DHT22;61792;41.110;16.708;2022-07-06T15:11:21;34.19;38.94
73535;DHT22;61792;41.110;16.708;2022-07-06T15:14:25;33.97;40.01
73535;DHT22;61792;41.110;16.708;2022-07-06T15:17:29;33.90;38.21
73535;DHT22;61792;41.110;16.708;2022-07-06T15:20:35;33.90;39.14
73535;DHT22;61792;41.110;16.708;2022-07-06T15:23:39;33.73;40.20
73535;DHT22;61792;41.110;16.708;2022-07-06T15:26:42;33.62;38.39
73535;DHT22;61792;41.110;16.708;2022-07-06T15:29:47;33.50;38.24
73535;DHT22;61792;41.110;16.708;2022-07-06T15:32:51;33.33;38.44
73535;DHT22;61792;41.110;16.708;2022-07-06T15:35:55;33.15;39.27
73535;DHT22;61792;41.110;16.708;2022-07-06T15:38:59;33.15;39.47
73535;DHT22;61792;41.110;16.708;2022-07-06T15:42:03;33.23;38.99
73535;DHT22;61792;41.110;16.708;2022-07-06T15:45:08;33.46;39.30
73535;DHT22;61792;41.110;16.708;2022-07-06T15:48:12;33.35;38.89
73535;DHT22;61792;41.110;16.708;2022-07-06T15:51:16;33.30;39.12
73535;DHT22;61792;41.110;16.708;2022-07-06T15:54:20;33.05;39.59
73535;DHT22;61792;41.110;16.708;2022-07-06T15:57:24;33.05;40.73
73535;DHT22;61792;41.110;16.708;2022-07-06T16:00:28;33.09;40.28
73535;DHT22;61792;41.110;16.708;2022-07-06T16:03:33;33.28;39.67
73535;DHT22;61792;41.110;16.708;2022-07-06T16:06:37;33.25;40.03
73535;DHT22;61792;41.110;16.708;2022-07-06T16:09:41;33.49;40.35
73535;DHT22;61792;41.110;16.708;2022-07-06T16:12:45;33.63;40.70
73535;DHT22;61792;41.110;16.708;2022-07-06T16:15:49;33.55;41.28
73535;DHT22;61792;41.110;16.708;2022-07-06T16:18:54;33.43;42.02
73535;DHT22;61792;41.110;16.708;2022-07-06T16:21:58;32.84;43.27
73535;DHT22;61792;41.110;16.708;2022-07-06T16:25:02;33.09;42.42
73535;DHT22;61792;41.110;16.708;2022-07-06T16:28:06;33.15;41.92
73535;DHT22;61792;41.110;16.708;2022-07-06T16:31:10;33.33;42.34
73535;DHT22;61792;41.110;16.708;2022-07-06T16:34:14;33.22;42.60
73535;DHT22;61792;41.110;16.708;2022-07-06T16:37:18;33.04;42.79
73535;DHT22;61792;41.110;16.708;2022-07-06T16:40:22;32.92;43.60
73535;DHT22;61792;41.110;16.708;2022-07-06T16:43:26;33.00;43.35
73535;DHT22;61792;41.110;16.708;2022-07-06T16:46:30;32.95;42.78
73535;DHT22;61792;41.110;16.708;2022-07-06T16:49:34;33.02;42.72
73535;DHT22;61792;41.110;16.708;2022-07-06T16:52:39;32.78;44.45
73535;DHT22;61792;41.110;16.708;2022-07-06T16:55:43;32.57;43.87
73535;DHT22;61792;41.110;16.708;2022-07-06T16:58:46;32.43;43.71
73535;DHT22;61792;41.110;16.708;2022-07-06T17:01:51;32.26;44.94
73535;DHT22;61792;41.110;16.708;2022-07-06T17:04:55;32.16;45.21
73535;DHT22;61792;41.110;16.708;2022-07-06T17:07:59;32.15;45.50
73535;DHT22;61792;41.110;16.708;2022-07-06T17:11:03;32.08;45.39
73535;DHT22;61792;41.110;16.708;2022-07-06T17:14:07;32.12;45.47
73535;DHT22;61792;41.110;16.708;2022-07-06T17:17:11;31.81;46.53
73535;DHT22;61792;41.110;16.708;2022-07-06T17:20:15;31.91;46.26
73535;DHT22;61792;41.110;16.708;2022-07-06T17:23:19;31.95;47.32
73535;DHT22;61792;41.110;16.708;2022-07-06T17:26:23;31.95;46.69
73535;DHT22;61792;41.110;16.708;2022-07-06T17:29:27;31.70;47.53
73535;DHT22;61792;41.110;16.708;2022-07-06T17:32:31;31.80;47.77
73535;DHT22;61792;41.110;16.708;2022-07-06T17:35:35;31.77;48.00
73535;DHT22;61792;41.110;16.708;2022-07-06T17:38:39;31.85;47.45
73535;DHT22;61792;41.110;16.708;2022-07-06T17:41:43;31.82;47.04
73535;DHT22;61792;41.110;16.708;2022-07-06T17:44:48;31.65;47.63
73535;DHT22;61792;41.110;16.708;2022-07-06T17:47:52;31.53;46.84
73535;DHT22;61792;41.110;16.708;2022-07-06T17:50:56;31.38;46.97
73535;DHT22;61792;41.110;16.708;2022-07-06T17:54:01;31.45;46.62
73535;DHT22;61792;41.110;16.708;2022-07-06T17:57:05;31.04;47.07
73535;DHT22;61792;41.110;16.708;2022-07-06T18:00:09;31.06;47.29
73535;DHT22;61792;41.110;16.708;2022-07-06T18:03:14;31.15;47.38
73535;DHT22;61792;41.110;16.708;2022-07-06T18:06:17;31.12;47.04
73535;DHT22;61792;41.110;16.708;2022-07-06T18:09:21;31.04;45.84
73535;DHT22;61792;41.110;16.708;2022-07-06T18:12:25;31.02;44.11
73535;DHT22;61792;41.110;16.708;2022-07-06T18:15:29;30.81;44.72
73535;DHT22;61792;41.110;16.708;2022-07-06T18:18:33;30.69;45.43
73535;DHT22;61792;41.110;16.708;2022-07-06T18:21:38;30.58;45.95
73535;DHT22;61792;41.110;16.708;2022-07-06T18:24:42;30.54;46.07
73535;DHT22;61792;41.110;16.708;2022-07-06T18:27:46;30.44;46.39
73535;DHT22;61792;41.110;16.708;2022-07-06T18:30:50;30.30;46.75
73535;DHT22;61792;41.110;16.708;2022-07-06T18:33:55;30.21;46.91
73535;DHT22;61792;41.110;16.708;2022-07-06T18:36:59;30.21;47.00
73535;DHT22;61792;41.110;16.708;2022-07-06T18:40:04;30.18;47.21
73535;DHT22;61792;41.110;16.708;2022-07-06T18:43:08;30.25;47.18
73535;DHT22;61792;41.110;16.708;2022-07-06T18:46:14;30.55;46.70
73535;DHT22;61792;41.110;16.708;2022-07-06T18:49:18;30.72;46.30
73535;DHT22;61792;41.110;16.708;2022-07-06T18:52:23;30.69;46.35
73535;DHT22;61792;41.110;16.708;2022-07-06T18:55:27;30.78;46.06
73535;DHT22;61792;41.110;16.708;2022-07-06T18:58:45;30.55;46.35
73535;DHT22;61792;41.110;16.708;2022-07-06T19:02:07;30.61;46.06
73535;DHT22;61792;41.110;16.708;2022-07-06T19:05:11;30.68;44.59
73535;DHT22;61792;41.110;16.708;2022-07-06T19:08:30;30.52;43.97
73535;DHT22;61792;41.110;16.708;2022-07-06T19:11:47;30.44;44.19
73535;DHT22;61792;41.110;16.708;2022-07-06T19:14:51;30.47;44.09
73535;DHT22;61792;41.110;16.708;2022-07-06T19:17:59;30.60;43.92
73535;DHT22;61792;41.110;16.708;2022-07-06T19:21:04;30.65;43.47
73535;DHT22;61792;41.110;16.708;2022-07-06T19:24:11;30.72;43.10
73535;DHT22;61792;41.110;16.708;2022-07-06T19:27:20;30.76;43.01
73535;DHT22;61792;41.110;16.708;2022-07-06T19:30:43;30.78;42.71
73535;DHT22;61792;41.110;16.708;2022-07-06T19:34:01;30.79;42.44
73535;DHT22;61792;41.110;16.708;2022-07-06T19:37:06;30.74;42.42
73535;DHT22;61792;41.110;16.708;2022-07-06T19:40:11;30.75;42.44
73535;DHT22;61792;41.110;16.708;2022-07-06T19:43:14;30.74;42.45
73535;DHT22;61792;41.110;16.708;2022-07-06T19:50:49;30.38;43.57
73535;DHT22;61792;41.110;16.708;2022-07-06T19:54:50;30.35;43.72
73535;DHT22;61792;41.110;16.708;2022-07-06T23:08:43;28.11;41.64
73535;DHT22;61792;41.110;16.708;2022-07-06T23:11:47;28.08;41.83
73535;DHT22;61792;41.110;16.708;2022-07-06T23:14:51;28.14;41.82
73535;DHT22;61792;41.110;16.708;2022-07-06T23:17:55;28.24;41.63
73535;DHT22;61792;41.110;16.708;2022-07-06T23:21:00;28.21;41.38
73535;DHT22;61792;41.110;16.708;2022-07-06T23:24:04;28.14;41.27
73535;DHT22;61792;41.110;16.708;2022-07-06T23:27:08;28.17;40.88
73535;DHT22;61792;41.110;16.708;2022-07-06T23:30:13;28.11;40.66
73535;DHT22;61792;41.110;16.708;2022-07-06T23:33:18;28.15;40.74
73535;DHT22;61792;41.110;16.708;2022-07-06T23:36:22;28.18;40.49
73535;DHT22;61792;41.110;16.708;2022-07-06T23:39:26;28.18;40.39
73535;DHT22;61792;41.110;16.708;2022-07-06T23:42:30;28.14;40.49
73535;DHT22;61792;41.110;16.708;2022-07-06T23:45:34;28.11;40.56
73535;DHT22;61792;41.110;16.708;2022-07-06T23:48:38;28.10;40.46
73535;DHT22;61792;41.110;16.708;2022-07-06T23:51:42;28.14;40.57
73535;DHT22;61792;41.110;16.708;2022-07-06T23:54:46;28.17;40.54
73535;DHT22;61792;41.110;16.708;2022-07-06T23:57:50;28.27;40.64
